createdAt,value
2022-10-21T00:00:34.221Z,7.93
2022-10-21T00:03:00.791Z,7.94
2022-10-21T00:05:29.910Z,7.95
2022-10-21T00:07:56.570Z,7.95
2022-10-21T00:10:23.205Z,7.93
2022-10-21T00:12:50.161Z,7.91
2022-10-21T00:15:16.791Z,7.92
2022-10-21T00:17:43.446Z,7.93
2022-10-21T00:20:11.183Z,7.91
2022-10-21T00:22:40.897Z,7.96
2022-10-21T00:25:08.103Z,7.95
2022-10-21T00:27:34.843Z,7.96
2022-10-21T00:30:01.575Z,7.96
2022-10-21T00:32:30.242Z,8.00
2022-10-21T00:34:56.974Z,8.07
2022-10-21T00:37:23.706Z,8.03
2022-10-21T00:39:51.167Z,8.07
2022-10-21T00:42:22.059Z,8.15
2022-10-21T00:45:07.118Z,8.20
2022-10-21T00:47:39.271Z,8.16
2022-10-21T00:50:06.329Z,8.15
2022-10-21T00:52:34.835Z,8.14
2022-10-21T00:55:04.316Z,8.18
2022-10-21T00:57:33.328Z,8.22
2022-10-21T01:00:01.160Z,8.25
2022-10-21T01:02:28.456Z,8.26
2022-10-21T01:04:57.596Z,8.27
2022-10-21T01:07:25.718Z,8.35
2022-10-21T01:09:52.484Z,8.43
2022-10-21T01:12:28.780Z,8.47
2022-10-21T01:14:57.756Z,8.55
2022-10-21T01:17:45.605Z,8.52
2022-10-21T01:20:31.376Z,8.51
2022-10-21T01:23:10.597Z,8.54
2022-10-21T01:25:50.036Z,8.59
2022-10-21T01:28:32.274Z,8.72
2022-10-21T01:31:26.368Z,8.70
2022-10-21T01:34:02.736Z,8.73
2022-10-21T01:36:41.331Z,8.80
2022-10-21T01:39:12.884Z,8.84
2022-10-21T01:41:44.149Z,8.89
2022-10-21T01:44:21.681Z,8.91
2022-10-21T01:46:54.140Z,8.88
2022-10-21T01:49:32.247Z,8.84
2022-10-21T01:52:00.132Z,8.80
2022-10-21T01:54:28.855Z,8.80
2022-10-21T01:56:55.834Z,8.87
2022-10-21T01:59:24.508Z,8.84
2022-10-21T02:01:51.861Z,8.81
2022-10-21T02:04:18.979Z,8.80
2022-10-21T02:06:45.586Z,8.88
2022-10-21T02:09:12.388Z,8.77
2022-10-21T02:11:39.952Z,8.78
2022-10-21T02:14:09.671Z,8.77
2022-10-21T02:16:37.840Z,8.76
2022-10-21T02:19:06.042Z,8.73
2022-10-21T02:21:34.582Z,8.75
2022-10-21T02:24:27.574Z,8.63
2022-10-21T02:27:09.263Z,8.61
2022-10-21T02:29:52.540Z,8.59
2022-10-21T02:32:34.029Z,8.58
2022-10-21T02:35:24.968Z,8.58
2022-10-21T02:38:14.736Z,8.63
2022-10-21T02:41:00.867Z,8.57
2022-10-21T02:43:54.324Z,8.54
2022-10-21T02:46:37.787Z,8.54
2022-10-21T02:49:19.391Z,8.54
2022-10-21T02:55:06.235Z,8.45
2022-10-21T02:57:47.794Z,8.42
2022-10-21T03:00:32.134Z,8.35
2022-10-21T03:03:14.676Z,8.27
2022-10-21T03:05:56.415Z,8.22
2022-10-21T03:08:38.024Z,8.18
2022-10-21T03:11:19.560Z,8.20
2022-10-21T03:14:01.511Z,8.15
2022-10-21T03:16:43.323Z,8.19
2022-10-21T03:19:24.845Z,8.07
2022-10-21T03:22:06.339Z,7.96
2022-10-21T03:24:47.837Z,7.92
2022-10-21T03:27:29.356Z,7.89
2022-10-21T03:30:10.957Z,7.88
2022-10-21T03:32:52.421Z,7.83
2022-10-21T03:35:33.964Z,7.83
2022-10-21T03:38:15.446Z,7.82
2022-10-21T03:40:56.952Z,7.74
2022-10-21T03:43:38.448Z,7.73
2022-10-21T03:46:20.006Z,7.71
2022-10-21T03:49:04.438Z,7.71
2022-10-21T03:51:48.498Z,7.67
2022-10-21T03:54:30.000Z,7.70
2022-10-21T03:57:11.699Z,7.75
2022-10-21T03:59:53.231Z,7.73
2022-10-21T04:02:34.749Z,7.71
2022-10-21T04:05:16.325Z,7.70
2022-10-21T04:07:57.829Z,7.70
2022-10-21T04:10:39.307Z,7.70
2022-10-21T04:13:20.811Z,7.66
2022-10-21T04:16:04.751Z,7.66
2022-10-21T04:18:47.683Z,7.62
2022-10-21T04:21:29.209Z,7.66
2022-10-21T04:24:10.701Z,7.71
2022-10-21T04:26:52.245Z,7.73
2022-10-21T04:29:33.816Z,7.79
2022-10-21T04:32:15.354Z,7.87
2022-10-21T04:34:56.881Z,7.98
2022-10-21T04:37:40.287Z,8.10
2022-10-21T04:40:22.499Z,8.14
2022-10-21T04:43:04.015Z,8.22
2022-10-21T04:45:49.062Z,8.24
2022-10-21T04:48:34.348Z,8.27
2022-10-21T04:51:19.749Z,8.30
2022-10-21T04:54:05.150Z,8.42
2022-10-21T04:56:50.210Z,8.52
2022-10-21T04:59:35.321Z,8.56
2022-10-21T05:02:23.038Z,8.58
2022-10-21T05:05:10.727Z,8.58
2022-10-21T05:07:55.975Z,8.68
2022-10-21T05:10:41.061Z,8.80
2022-10-21T05:13:27.560Z,8.88
2022-10-21T05:16:12.569Z,8.84
2022-10-21T05:18:57.810Z,8.84
2022-10-21T05:21:42.971Z,8.86
2022-10-21T05:24:28.247Z,8.93
2022-10-21T05:27:33.484Z,8.94
2022-10-21T05:30:19.261Z,8.91
2022-10-21T05:33:04.740Z,8.92
2022-10-21T05:35:56.819Z,8.89
2022-10-21T05:38:43.483Z,8.93
2022-10-21T05:41:29.364Z,9.06
2022-10-21T05:44:15.401Z,9.10
2022-10-21T05:47:00.445Z,9.12
2022-10-21T05:49:45.378Z,9.16
2022-10-21T05:52:30.950Z,9.15
2022-10-21T05:55:15.969Z,9.16
2022-10-21T05:58:01.029Z,9.21
2022-10-21T06:00:47.888Z,9.32
2022-10-21T06:03:34.963Z,9.29
2022-10-21T06:06:20.264Z,9.31
2022-10-21T06:09:05.182Z,9.33
2022-10-21T06:11:50.143Z,9.31
2022-10-21T06:14:38.183Z,9.37
2022-10-21T06:17:23.332Z,9.36
2022-10-21T06:20:08.750Z,9.35
2022-10-21T06:22:53.648Z,9.35
2022-10-21T06:25:39.009Z,9.45
2022-10-21T06:28:24.314Z,9.41
2022-10-21T06:31:13.013Z,9.52
2022-10-21T06:34:00.142Z,9.41
2022-10-21T06:36:45.159Z,9.33
2022-10-21T06:39:31.172Z,9.44
2022-10-21T06:42:16.239Z,9.37
2022-10-21T06:45:06.497Z,9.44
2022-10-21T06:47:52.135Z,9.53
2022-10-21T06:50:37.963Z,9.56
2022-10-21T06:53:29.385Z,9.61
2022-10-21T06:56:16.693Z,9.61
2022-10-21T06:59:01.917Z,9.60
2022-10-21T07:01:59.651Z,9.62
2022-10-21T07:04:48.937Z,9.61
2022-10-21T07:07:34.540Z,9.71
2022-10-21T07:10:19.873Z,9.74
2022-10-21T07:13:04.791Z,9.82
2022-10-21T07:16:02.823Z,9.97
2022-10-21T07:18:48.503Z,10.07
2022-10-21T07:21:33.804Z,10.16
2022-10-21T07:24:22.498Z,10.22
2022-10-21T07:27:08.046Z,10.26
2022-10-21T07:29:53.195Z,10.33
2022-10-21T07:32:38.146Z,10.26
2022-10-21T07:35:23.545Z,10.35
2022-10-21T07:38:09.014Z,10.37
2022-10-21T07:40:54.171Z,10.43
2022-10-21T07:43:39.291Z,10.41
2022-10-21T07:46:25.013Z,10.40
2022-10-21T07:49:11.108Z,10.31
2022-10-21T07:51:55.969Z,10.27
2022-10-21T07:54:41.120Z,10.42
2022-10-21T07:57:29.046Z,10.51
2022-10-21T08:00:14.238Z,10.61
2022-10-21T08:02:59.544Z,10.47
2022-10-21T08:05:44.546Z,10.44
2022-10-21T08:08:30.846Z,10.48
2022-10-21T08:11:26.707Z,10.66
2022-10-21T08:14:11.913Z,10.70
2022-10-21T08:16:56.973Z,10.75
2022-10-21T08:19:42.414Z,10.85
2022-10-21T08:22:27.410Z,10.94
2022-10-21T08:25:16.710Z,10.95
2022-10-21T08:28:01.958Z,11.02
2022-10-21T08:30:47.109Z,11.12
2022-10-21T08:33:32.255Z,11.21
2022-10-21T08:36:22.136Z,11.17
2022-10-21T08:39:10.024Z,11.17
2022-10-21T08:41:55.801Z,11.12
2022-10-21T08:44:40.741Z,11.18
2022-10-21T08:47:31.329Z,11.19
2022-10-21T08:50:20.767Z,11.34
2022-10-21T08:53:12.120Z,11.40
2022-10-21T08:56:19.850Z,11.43
2022-10-21T08:59:10.530Z,11.53
2022-10-21T09:02:02.668Z,11.76
2022-10-21T09:04:53.906Z,11.68
2022-10-21T09:07:51.658Z,11.73
2022-10-21T09:10:45.854Z,11.78
2022-10-21T09:13:51.382Z,11.78
2022-10-21T09:16:55.446Z,11.80
2022-10-21T09:19:47.315Z,11.81
2022-10-21T09:22:38.342Z,11.77
2022-10-21T09:25:42.194Z,11.77
2022-10-21T09:28:13.884Z,11.81
2022-10-21T09:30:41.493Z,11.86
2022-10-21T09:33:12.125Z,11.88
2022-10-21T09:35:44.678Z,11.89
2022-10-21T09:38:46.617Z,11.83
2022-10-21T09:41:15.202Z,11.99
2022-10-21T09:43:43.334Z,11.97
2022-10-21T09:46:14.104Z,12.02
2022-10-21T09:49:16.324Z,11.89
2022-10-21T09:51:34.223Z,11.85
2022-10-21T09:54:07.796Z,11.80
2022-10-21T09:56:36.155Z,11.72
2022-10-21T09:59:07.330Z,11.77
2022-10-21T10:01:35.816Z,11.93
2022-10-21T10:04:09.686Z,11.91
2022-10-21T10:06:43.617Z,11.95
2022-10-21T10:09:15.487Z,12.03
2022-10-21T10:11:49.046Z,11.94
2022-10-21T10:14:23.125Z,12.04
2022-10-21T10:16:49.746Z,12.16
2022-10-21T10:19:24.261Z,12.13
2022-10-21T10:22:10.479Z,12.14
2022-10-21T10:24:40.663Z,12.25
2022-10-21T10:27:23.511Z,12.40
2022-10-21T10:29:53.420Z,12.57
2022-10-21T10:32:22.825Z,12.60
2022-10-21T10:34:53.922Z,12.76
2022-10-21T10:37:25.023Z,12.86
2022-10-21T10:39:54.171Z,12.78
2022-10-21T10:42:25.171Z,12.76
2022-10-21T10:44:53.389Z,12.66
2022-10-21T10:47:24.426Z,12.71
2022-10-21T10:49:51.379Z,12.66
2022-10-21T10:52:21.429Z,12.70
2022-10-21T10:54:48.775Z,12.63
2022-10-21T10:57:17.503Z,12.62
2022-10-21T10:59:48.709Z,12.62
2022-10-21T11:02:19.550Z,12.54
2022-10-21T11:05:03.432Z,12.47
2022-10-21T11:07:35.357Z,12.61
2022-10-21T11:10:04.395Z,12.58
2022-10-21T11:12:31.867Z,12.42
2022-10-21T11:14:59.007Z,12.40
2022-10-21T11:17:30.828Z,12.39
2022-10-21T11:20:04.251Z,12.48
2022-10-21T11:22:30.821Z,12.49
2022-10-21T11:25:02.509Z,12.53
2022-10-21T11:27:41.951Z,12.60
2022-10-21T11:30:22.232Z,12.54
2022-10-21T11:32:48.814Z,12.58
2022-10-21T11:35:16.952Z,12.67
2022-10-21T11:37:54.287Z,12.69
2022-10-21T11:40:33.707Z,12.78
2022-10-21T11:43:20.837Z,12.72
2022-10-21T11:46:04.227Z,12.66
2022-10-21T11:48:35.528Z,12.74
2022-10-21T11:51:14.185Z,12.71
2022-10-21T11:53:55.459Z,12.77
2022-10-21T11:56:29.480Z,12.77
2022-10-21T11:59:04.472Z,12.70
2022-10-21T12:01:31.013Z,12.71
2022-10-21T12:03:57.533Z,12.75
2022-10-21T12:06:43.235Z,12.72
2022-10-21T12:09:15.759Z,12.80
2022-10-21T12:11:55.531Z,12.89
2022-10-21T12:14:31.329Z,13.00
2022-10-21T12:17:00.959Z,12.99
2022-10-21T12:19:27.960Z,13.12
2022-10-21T12:21:54.588Z,13.30
2022-10-21T12:24:21.266Z,13.42
2022-10-21T12:27:03.699Z,13.51
2022-10-21T12:29:49.117Z,13.56
2022-10-21T12:32:34.416Z,13.62
2022-10-21T12:35:01.867Z,13.64
2022-10-21T12:37:43.597Z,13.65
2022-10-21T12:40:33.256Z,13.66
2022-10-21T12:43:01.342Z,13.64
2022-10-21T12:45:29.385Z,13.68
2022-10-21T12:47:56.253Z,13.59
2022-10-21T12:50:26.185Z,13.42
2022-10-21T12:53:17.108Z,13.41
2022-10-21T12:55:48.869Z,13.34
2022-10-21T12:58:30.458Z,13.28
2022-10-21T13:00:58.242Z,13.35
2022-10-21T13:03:43.749Z,13.35
2022-10-21T13:06:10.488Z,13.36
2022-10-21T13:08:38.513Z,13.33
2022-10-21T13:11:05.420Z,13.35
2022-10-21T13:13:37.524Z,13.35
2022-10-21T13:16:19.667Z,13.41
2022-10-21T13:18:55.582Z,13.46
2022-10-21T13:21:41.659Z,13.38
2022-10-21T13:24:11.066Z,13.33
2022-10-21T13:26:40.417Z,13.30
2022-10-21T13:29:18.191Z,13.21
2022-10-21T13:31:44.935Z,13.17
2022-10-21T13:34:30.817Z,13.18
2022-10-21T13:36:57.667Z,13.16
2022-10-21T13:39:24.489Z,13.10
2022-10-21T13:42:00.032Z,13.12
2022-10-21T13:44:30.573Z,13.18
2022-10-21T13:46:58.542Z,13.26
2022-10-21T13:49:28.717Z,13.36
2022-10-21T13:51:55.394Z,13.30
2022-10-21T13:54:23.478Z,13.34
2022-10-21T13:56:50.257Z,13.41
2022-10-21T13:59:27.506Z,13.41
2022-10-21T14:01:55.388Z,13.49
2022-10-21T14:04:23.137Z,13.52
2022-10-21T14:06:54.025Z,13.56
2022-10-21T14:09:29.001Z,13.48
2022-10-21T14:12:00.545Z,13.48
2022-10-21T14:14:28.431Z,13.51
2022-10-21T14:16:56.626Z,13.50
2022-10-21T14:19:26.427Z,13.44
2022-10-21T14:21:54.705Z,13.42
2022-10-21T14:24:21.304Z,13.40
2022-10-21T14:26:47.917Z,13.40
2022-10-21T14:29:14.734Z,13.39
2022-10-21T14:31:44.242Z,13.39
2022-10-21T14:34:23.530Z,13.34
2022-10-21T14:37:19.631Z,13.24
2022-10-21T14:39:46.313Z,13.27
2022-10-21T14:42:14.799Z,13.20
2022-10-21T14:44:42.558Z,13.18
2022-10-21T14:47:17.037Z,13.20
2022-10-21T14:49:47.902Z,13.17
2022-10-21T14:52:18.849Z,13.17
2022-10-21T14:54:52.838Z,13.07
2022-10-21T14:57:34.231Z,13.17
2022-10-21T15:00:03.421Z,13.17
2022-10-21T15:02:34.362Z,13.17
2022-10-21T15:05:25.645Z,13.10
2022-10-21T15:07:52.260Z,13.06
2022-10-21T15:10:20.120Z,13.07
2022-10-21T15:12:51.375Z,13.01
2022-10-21T15:15:39.217Z,13.03
2022-10-21T15:18:14.332Z,12.96
2022-10-21T15:20:59.720Z,12.92
2022-10-21T15:23:29.142Z,12.81
2022-10-21T15:25:56.980Z,12.78
2022-10-21T15:28:23.821Z,12.65
2022-10-21T15:30:52.278Z,12.55
2022-10-21T15:33:18.904Z,12.49
2022-10-21T15:35:45.431Z,12.56
2022-10-21T15:38:12.085Z,12.53
2022-10-21T15:40:39.066Z,12.58
2022-10-21T15:43:10.240Z,12.48
2022-10-21T15:45:36.839Z,12.44
2022-10-21T15:48:06.122Z,12.49
2022-10-21T15:50:32.719Z,12.46
2022-10-21T15:52:59.346Z,12.47
2022-10-21T15:55:25.912Z,12.51
2022-10-21T15:57:52.482Z,12.46
2022-10-21T16:00:22.731Z,12.40
2022-10-21T16:02:51.583Z,12.44
2022-10-21T16:05:18.792Z,12.29
2022-10-21T16:07:45.491Z,12.29
2022-10-21T16:10:19.966Z,12.35
2022-10-21T16:12:46.720Z,12.38
2022-10-21T16:15:13.935Z,12.40
2022-10-21T16:17:43.254Z,12.35
2022-10-21T16:22:39.369Z,12.28
2022-10-21T16:25:06.367Z,12.37
2022-10-21T16:27:43.691Z,12.25
2022-10-21T16:30:19.345Z,12.28
2022-10-21T16:32:46.378Z,12.16
2022-10-21T16:35:13.586Z,12.18
2022-10-21T16:37:40.646Z,12.17
2022-10-21T16:40:16.668Z,12.20
2022-10-21T16:42:43.383Z,12.13
2022-10-21T16:45:10.271Z,12.18
2022-10-21T16:47:37.212Z,12.11
2022-10-21T16:50:04.613Z,12.16
2022-10-21T16:52:33.561Z,12.15
2022-10-21T16:55:00.303Z,12.17
2022-10-21T16:57:26.895Z,12.21
2022-10-21T16:59:53.518Z,12.26
2022-10-21T17:02:20.606Z,12.20
2022-10-21T17:04:47.311Z,12.22
2022-10-21T17:07:14.063Z,12.26
2022-10-21T17:09:40.743Z,12.22
2022-10-21T17:12:09.982Z,12.17
2022-10-21T17:14:36.593Z,12.16
2022-10-21T17:17:03.157Z,12.22
2022-10-21T17:19:29.805Z,12.25
2022-10-21T17:21:56.498Z,12.24
2022-10-21T17:24:23.126Z,12.33
2022-10-21T17:26:49.754Z,12.25
2022-10-21T17:29:16.407Z,12.15
2022-10-21T17:31:43.336Z,12.09
2022-10-21T17:34:18.625Z,12.11
2022-10-21T17:36:45.259Z,12.20
2022-10-21T17:39:11.961Z,12.10
2022-10-21T17:41:38.687Z,12.03
2022-10-21T17:44:05.414Z,11.98
2022-10-21T17:46:32.035Z,12.03
2022-10-21T17:48:58.604Z,11.96
2022-10-21T17:51:25.766Z,11.90
2022-10-21T17:53:53.347Z,11.88
2022-10-21T17:56:20.193Z,11.88
2022-10-21T17:58:50.722Z,11.83
2022-10-21T18:01:18.534Z,11.86
2022-10-21T18:03:45.453Z,12.00
2022-10-21T18:06:12.770Z,11.92
2022-10-21T18:08:39.431Z,11.87
2022-10-21T18:11:07.234Z,11.84
2022-10-21T18:13:36.364Z,11.84
2022-10-21T18:16:07.725Z,11.94
2022-10-21T18:18:34.426Z,11.90
2022-10-21T18:21:05.048Z,11.92
2022-10-21T18:23:31.824Z,11.88
2022-10-21T18:26:05.596Z,11.81
2022-10-21T18:28:32.996Z,11.85
2022-10-21T18:31:00.438Z,11.73
2022-10-21T18:33:27.618Z,11.68
2022-10-21T18:35:54.278Z,11.66
2022-10-21T18:38:20.933Z,11.60
2022-10-21T18:40:56.305Z,11.60
2022-10-21T18:43:23.145Z,11.63
2022-10-21T18:45:49.800Z,11.66
2022-10-21T18:48:16.500Z,11.55
2022-10-21T18:50:43.237Z,11.57
2022-10-21T18:53:09.967Z,11.55
2022-10-21T18:55:39.198Z,11.66
2022-10-21T18:58:05.776Z,11.68
2022-10-21T19:00:32.779Z,11.73
2022-10-21T19:02:59.342Z,11.68
2022-10-21T19:05:25.917Z,11.62
2022-10-21T19:07:53.458Z,11.68
2022-10-21T19:10:20.329Z,11.55
2022-10-21T19:12:46.906Z,11.77
2022-10-21T19:15:13.500Z,11.72
2022-10-21T19:17:41.987Z,11.65
2022-10-21T19:20:09.129Z,11.68
2022-10-21T19:22:35.695Z,11.63
2022-10-21T19:25:02.388Z,11.64
2022-10-21T19:27:29.539Z,11.67
2022-10-21T19:29:57.256Z,11.71
2022-10-21T19:32:23.905Z,11.67
2022-10-21T19:34:50.589Z,11.69
2022-10-21T19:37:17.151Z,11.74
2022-10-21T19:39:43.761Z,11.74
2022-10-21T19:42:10.301Z,11.71
2022-10-21T19:44:36.994Z,11.71
2022-10-21T19:47:03.724Z,11.69
2022-10-21T19:49:30.314Z,11.72
2022-10-21T19:51:57.185Z,11.70
2022-10-21T19:54:23.703Z,11.66
2022-10-21T19:56:50.255Z,11.72
2022-10-21T20:01:44.458Z,11.69
2022-10-21T20:04:11.267Z,11.65
2022-10-21T20:06:38.993Z,11.69
2022-10-21T20:09:10.289Z,11.67
2022-10-21T20:11:37.325Z,11.67
2022-10-21T20:14:04.376Z,11.73
2022-10-21T20:16:35.580Z,11.66
2022-10-21T20:19:02.531Z,11.64
2022-10-21T20:21:30.265Z,11.65
2022-10-21T20:23:57.004Z,11.68
2022-10-21T20:26:24.106Z,11.62
2022-10-21T20:28:50.991Z,11.67
2022-10-21T20:31:22.185Z,11.58
2022-10-21T20:33:51.737Z,11.61
2022-10-21T20:36:20.473Z,11.54
2022-10-21T20:38:47.526Z,11.61
2022-10-21T20:41:22.300Z,11.58
2022-10-21T20:43:50.235Z,11.57
2022-10-21T20:46:17.474Z,11.61
2022-10-21T20:48:45.805Z,11.57
2022-10-21T20:51:13.977Z,11.54
2022-10-21T20:53:44.632Z,11.56
2022-10-21T20:56:11.374Z,11.54
2022-10-21T20:58:40.693Z,11.48
2022-10-21T21:01:18.311Z,11.47
2022-10-21T21:03:45.508Z,11.43
2022-10-21T21:06:12.570Z,11.38
2022-10-21T21:08:48.663Z,11.39
2022-10-21T21:11:21.487Z,11.42
2022-10-21T21:13:48.210Z,11.38
2022-10-21T21:16:16.431Z,11.44
2022-10-21T21:18:44.675Z,11.42
2022-10-21T21:21:13.117Z,11.40
2022-10-21T21:23:40.776Z,11.45
2022-10-21T21:26:09.237Z,11.41
2022-10-21T21:28:36.521Z,11.40
2022-10-21T21:31:03.668Z,11.37
2022-10-21T21:33:30.410Z,11.38
2022-10-21T21:35:57.337Z,11.39
2022-10-21T21:38:25.770Z,11.34
2022-10-21T21:40:52.881Z,11.36
2022-10-21T21:43:19.459Z,11.39
2022-10-21T21:45:46.792Z,11.39
2022-10-21T21:48:17.619Z,11.41
2022-10-21T21:50:44.277Z,11.47
2022-10-21T21:53:11.910Z,11.46
2022-10-21T21:55:38.737Z,11.45
2022-10-21T21:58:05.856Z,11.42
2022-10-21T22:00:32.741Z,11.50
2022-10-21T22:02:59.529Z,11.52
2022-10-21T22:05:27.150Z,11.52
2022-10-21T22:07:53.851Z,11.52
2022-10-21T22:10:20.488Z,11.60
2022-10-21T22:12:47.070Z,11.55
2022-10-21T22:15:29.627Z,11.55
2022-10-21T22:18:00.619Z,11.54
2022-10-21T22:20:27.202Z,11.52
2022-10-21T22:22:53.958Z,11.56
2022-10-21T22:25:20.502Z,11.54
2022-10-21T22:27:47.131Z,11.63
2022-10-21T22:30:14.523Z,11.62
2022-10-21T22:32:41.305Z,11.59
2022-10-21T22:35:08.545Z,11.58
2022-10-21T22:37:35.604Z,11.58
2022-10-21T22:40:02.630Z,11.61
2022-10-21T22:42:29.294Z,11.64
2022-10-21T22:44:55.891Z,11.66
2022-10-21T22:47:23.499Z,11.68
2022-10-21T22:49:50.763Z,11.66
2022-10-21T22:52:17.728Z,11.68
2022-10-21T22:54:49.560Z,11.66
2022-10-21T22:57:17.343Z,11.63
2022-10-21T22:59:44.467Z,11.63
2022-10-21T23:02:12.312Z,11.62
2022-10-21T23:04:38.871Z,11.67
2022-10-21T23:07:11.370Z,11.69
2022-10-21T23:09:38.379Z,11.57
2022-10-21T23:12:05.074Z,11.55
2022-10-21T23:14:31.640Z,11.49
2022-10-21T23:16:58.281Z,11.43
2022-10-21T23:19:24.813Z,11.40
2022-10-21T23:21:51.363Z,11.34
2022-10-21T23:24:17.901Z,11.35
2022-10-21T23:26:44.473Z,11.28
2022-10-21T23:29:11.086Z,11.25
2022-10-21T23:31:37.643Z,11.25
2022-10-21T23:34:06.024Z,11.25
2022-10-21T23:36:33.439Z,11.24
2022-10-21T23:39:00.087Z,11.21
2022-10-21T23:41:26.655Z,11.20
2022-10-21T23:43:53.216Z,11.21
2022-10-21T23:46:20.123Z,11.24
2022-10-21T23:48:47.228Z,11.25
2022-10-21T23:51:13.996Z,11.25
2022-10-21T23:53:41.181Z,11.28
2022-10-21T23:56:07.957Z,11.35
2022-10-21T23:58:34.975Z,11.35
